sensor_id;sensor_type;location;lat;lon;timestamp;P1;durP1;ratioP1;P2;durP2;ratioP2
25125;SDS011;13106;50.808;5.670;2022-12-18T00:01:33;93.82;;;39.53;;
25125;SDS011;13106;50.808;5.670;2022-12-18T00:04:00;93.15;;;38.80;;
25125;SDS011;13106;50.808;5.670;2022-12-18T00:06:27;87.32;;;37.05;;
25125;SDS011;13106;50.808;5.670;2022-12-18T00:08:54;92.30;;;41.10;;
25125;SDS011;13106;50.808;5.670;2022-12-18T00:11:22;91.32;;;42.17;;
25125;SDS011;13106;50.808;5.670;2022-12-18T00:13:49;84.13;;;38.67;;
25125;SDS011;13106;50.808;5.670;2022-12-18T00:16:16;87.28;;;38.40;;
25125;SDS011;13106;50.808;5.670;2022-12-18T00:18:45;85.95;;;41.58;;
25125;SDS011;13106;50.808;5.670;2022-12-18T00:21:11;77.97;;;38.15;;
25125;SDS011;13106;50.808;5.670;2022-12-18T00:23:38;83.50;;;38.47;;
25125;SDS011;13106;50.808;5.670;2022-12-18T00:26:05;81.35;;;37.08;;
25125;SDS011;13106;50.808;5.670;2022-12-18T00:28:31;78.50;;;35.92;;
25125;SDS011;13106;50.808;5.670;2022-12-18T00:31:01;79.22;;;35.80;;
25125;SDS011;13106;50.808;5.670;2022-12-18T00:33:28;75.88;;;36.03;;
25125;SDS011;13106;50.808;5.670;2022-12-18T00:35:54;77.70;;;37.47;;
25125;SDS011;13106;50.808;5.670;2022-12-18T00:38:20;77.85;;;35.97;;
25125;SDS011;13106;50.808;5.670;2022-12-18T00:40:46;73.65;;;34.85;;
25125;SDS011;13106;50.808;5.670;2022-12-18T00:43:12;69.95;;;34.03;;
25125;SDS011;13106;50.808;5.670;2022-12-18T00:45:38;73.13;;;34.22;;
25125;SDS011;13106;50.808;5.670;2022-12-18T00:48:04;77.82;;;35.95;;
25125;SDS011;13106;50.808;5.670;2022-12-18T00:50:30;67.30;;;33.90;;
25125;SDS011;13106;50.808;5.670;2022-12-18T00:52:56;65.63;;;31.10;;
25125;SDS011;13106;50.808;5.670;2022-12-18T00:55:23;70.50;;;32.47;;
25125;SDS011;13106;50.808;5.670;2022-12-18T00:57:50;60.80;;;29.92;;
25125;SDS011;13106;50.808;5.670;2022-12-18T01:00:17;68.32;;;31.65;;
25125;SDS011;13106;50.808;5.670;2022-12-18T01:02:43;72.30;;;33.28;;
25125;SDS011;13106;50.808;5.670;2022-12-18T01:05:10;74.10;;;33.78;;
25125;SDS011;13106;50.808;5.670;2022-12-18T01:07:37;72.43;;;35.10;;
25125;SDS011;13106;50.808;5.670;2022-12-18T01:10:03;66.60;;;31.75;;
25125;SDS011;13106;50.808;5.670;2022-12-18T01:12:30;61.47;;;29.50;;
25125;SDS011;13106;50.808;5.670;2022-12-18T01:14:56;53.35;;;26.65;;
25125;SDS011;13106;50.808;5.670;2022-12-18T01:17:22;60.70;;;30.60;;
25125;SDS011;13106;50.808;5.670;2022-12-18T01:19:48;57.50;;;29.52;;
25125;SDS011;13106;50.808;5.670;2022-12-18T01:22:14;61.47;;;28.90;;
25125;SDS011;13106;50.808;5.670;2022-12-18T01:24:40;55.67;;;28.05;;
25125;SDS011;13106;50.808;5.670;2022-12-18T01:27:06;58.88;;;30.35;;
25125;SDS011;13106;50.808;5.670;2022-12-18T01:29:32;59.60;;;27.55;;
25125;SDS011;13106;50.808;5.670;2022-12-18T01:31:58;63.75;;;28.33;;
25125;SDS011;13106;50.808;5.670;2022-12-18T01:34:24;59.60;;;28.33;;
25125;SDS011;13106;50.808;5.670;2022-12-18T01:36:50;58.08;;;27.17;;
25125;SDS011;13106;50.808;5.670;2022-12-18T01:39:17;55.78;;;27.05;;
25125;SDS011;13106;50.808;5.670;2022-12-18T01:41:44;56.38;;;28.23;;
25125;SDS011;13106;50.808;5.670;2022-12-18T01:47:18;56.80;;;29.10;;
25125;SDS011;13106;50.808;5.670;2022-12-18T01:49:46;55.78;;;29.42;;
25125;SDS011;13106;50.808;5.670;2022-12-18T01:52:12;65.65;;;29.80;;
25125;SDS011;13106;50.808;5.670;2022-12-18T01:54:38;56.83;;;29.35;;
25125;SDS011;13106;50.808;5.670;2022-12-18T01:57:05;55.35;;;26.60;;
25125;SDS011;13106;50.808;5.670;2022-12-18T01:59:31;54.97;;;27.40;;
25125;SDS011;13106;50.808;5.670;2022-12-18T02:01:59;59.42;;;28.17;;
25125;SDS011;13106;50.808;5.670;2022-12-18T02:04:26;56.05;;;28.08;;
25125;SDS011;13106;50.808;5.670;2022-12-18T02:09:24;60.38;;;28.75;;
25125;SDS011;13106;50.808;5.670;2022-12-18T02:14:18;58.50;;;29.10;;
25125;SDS011;13106;50.808;5.670;2022-12-18T02:22:05;66.70;;;33.40;;
25125;SDS011;13106;50.808;5.670;2022-12-18T02:26:59;71.30;;;32.58;;
25125;SDS011;13106;50.808;5.670;2022-12-18T02:29:37;75.30;;;33.28;;
25125;SDS011;13106;50.808;5.670;2022-12-18T02:32:06;68.20;;;32.72;;
25125;SDS011;13106;50.808;5.670;2022-12-18T02:34:34;70.90;;;31.83;;
25125;SDS011;13106;50.808;5.670;2022-12-18T02:37:03;70.68;;;31.30;;
25125;SDS011;13106;50.808;5.670;2022-12-18T02:39:30;71.40;;;31.00;;
25125;SDS011;13106;50.808;5.670;2022-12-18T02:41:58;65.18;;;33.38;;
25125;SDS011;13106;50.808;5.670;2022-12-18T02:44:27;70.65;;;33.45;;
25125;SDS011;13106;50.808;5.670;2022-12-18T02:46:53;65.38;;;31.77;;
25125;SDS011;13106;50.808;5.670;2022-12-18T02:51:53;67.68;;;29.30;;
25125;SDS011;13106;50.808;5.670;2022-12-18T02:54:24;61.63;;;30.35;;
25125;SDS011;13106;50.808;5.670;2022-12-18T02:56:55;63.42;;;30.77;;
25125;SDS011;13106;50.808;5.670;2022-12-18T02:59:30;64.60;;;30.98;;
25125;SDS011;13106;50.808;5.670;2022-12-18T03:02:07;58.58;;;28.80;;
25125;SDS011;13106;50.808;5.670;2022-12-18T03:07:02;64.38;;;31.13;;
25125;SDS011;13106;50.808;5.670;2022-12-18T03:09:31;65.68;;;30.40;;
25125;SDS011;13106;50.808;5.670;2022-12-18T03:12:00;53.28;;;28.10;;
25125;SDS011;13106;50.808;5.670;2022-12-18T03:14:46;57.33;;;28.08;;
25125;SDS011;13106;50.808;5.670;2022-12-18T03:17:16;56.17;;;28.42;;
25125;SDS011;13106;50.808;5.670;2022-12-18T03:19:43;54.58;;;27.10;;
25125;SDS011;13106;50.808;5.670;2022-12-18T03:22:10;56.03;;;26.33;;
25125;SDS011;13106;50.808;5.670;2022-12-18T03:24:36;50.83;;;26.13;;
25125;SDS011;13106;50.808;5.670;2022-12-18T03:27:05;50.75;;;25.60;;
25125;SDS011;13106;50.808;5.670;2022-12-18T03:29:38;50.25;;;25.13;;
25125;SDS011;13106;50.808;5.670;2022-12-18T03:32:09;51.88;;;25.55;;
25125;SDS011;13106;50.808;5.670;2022-12-18T03:34:38;45.53;;;24.98;;
25125;SDS011;13106;50.808;5.670;2022-12-18T03:37:05;45.72;;;24.52;;
25125;SDS011;13106;50.808;5.670;2022-12-18T03:39:31;51.05;;;26.02;;
25125;SDS011;13106;50.808;5.670;2022-12-18T03:42:01;51.03;;;25.67;;
25125;SDS011;13106;50.808;5.670;2022-12-18T03:44:29;46.40;;;25.40;;
25125;SDS011;13106;50.808;5.670;2022-12-18T03:47:07;41.95;;;24.73;;
25125;SDS011;13106;50.808;5.670;2022-12-18T03:49:35;51.13;;;24.95;;
25125;SDS011;13106;50.808;5.670;2022-12-18T03:52:06;49.60;;;26.35;;
25125;SDS011;13106;50.808;5.670;2022-12-18T03:54:33;54.63;;;26.60;;
25125;SDS011;13106;50.808;5.670;2022-12-18T03:57:02;53.28;;;26.95;;
25125;SDS011;13106;50.808;5.670;2022-12-18T03:59:30;52.97;;;27.27;;
25125;SDS011;13106;50.808;5.670;2022-12-18T04:01:57;57.22;;;28.42;;
25125;SDS011;13106;50.808;5.670;2022-12-18T04:04:25;58.13;;;28.48;;
25125;SDS011;13106;50.808;5.670;2022-12-18T04:06:52;52.50;;;27.33;;
25125;SDS011;13106;50.808;5.670;2022-12-18T04:09:18;60.70;;;28.58;;
25125;SDS011;13106;50.808;5.670;2022-12-18T04:11:45;53.60;;;27.60;;
25125;SDS011;13106;50.808;5.670;2022-12-18T04:14:11;50.28;;;27.48;;
25125;SDS011;13106;50.808;5.670;2022-12-18T04:16:37;55.78;;;27.60;;
25125;SDS011;13106;50.808;5.670;2022-12-18T04:19:03;49.55;;;26.40;;
25125;SDS011;13106;50.808;5.670;2022-12-18T04:21:29;52.47;;;27.30;;
25125;SDS011;13106;50.808;5.670;2022-12-18T04:23:55;58.70;;;25.33;;
25125;SDS011;13106;50.808;5.670;2022-12-18T04:26:22;53.65;;;26.35;;
25125;SDS011;13106;50.808;5.670;2022-12-18T04:28:48;48.83;;;25.02;;
25125;SDS011;13106;50.808;5.670;2022-12-18T04:31:14;47.85;;;23.80;;
25125;SDS011;13106;50.808;5.670;2022-12-18T04:33:40;47.95;;;24.63;;
25125;SDS011;13106;50.808;5.670;2022-12-18T04:36:06;47.35;;;24.23;;
25125;SDS011;13106;50.808;5.670;2022-12-18T04:38:32;50.65;;;23.95;;
25125;SDS011;13106;50.808;5.670;2022-12-18T04:40:58;45.38;;;24.30;;
25125;SDS011;13106;50.808;5.670;2022-12-18T04:43:24;45.85;;;25.08;;
25125;SDS011;13106;50.808;5.670;2022-12-18T04:45:50;51.47;;;26.25;;
25125;SDS011;13106;50.808;5.670;2022-12-18T04:48:16;47.83;;;25.02;;
25125;SDS011;13106;50.808;5.670;2022-12-18T04:50:42;46.45;;;25.05;;
25125;SDS011;13106;50.808;5.670;2022-12-18T04:53:08;53.60;;;26.08;;
25125;SDS011;13106;50.808;5.670;2022-12-18T04:55:34;51.28;;;27.33;;
25125;SDS011;13106;50.808;5.670;2022-12-18T04:58:00;58.80;;;27.05;;
25125;SDS011;13106;50.808;5.670;2022-12-18T05:00:26;53.70;;;26.85;;
25125;SDS011;13106;50.808;5.670;2022-12-18T05:02:52;53.95;;;27.30;;
25125;SDS011;13106;50.808;5.670;2022-12-18T05:05:18;52.03;;;26.00;;
25125;SDS011;13106;50.808;5.670;2022-12-18T05:07:44;51.58;;;27.45;;
25125;SDS011;13106;50.808;5.670;2022-12-18T05:10:10;48.88;;;26.13;;
25125;SDS011;13106;50.808;5.670;2022-12-18T05:12:36;48.90;;;25.90;;
25125;SDS011;13106;50.808;5.670;2022-12-18T05:15:22;45.97;;;26.05;;
25125;SDS011;13106;50.808;5.670;2022-12-18T05:17:49;53.30;;;25.98;;
25125;SDS011;13106;50.808;5.670;2022-12-18T05:20:15;52.38;;;25.05;;
25125;SDS011;13106;50.808;5.670;2022-12-18T05:22:41;45.88;;;24.98;;
25125;SDS011;13106;50.808;5.670;2022-12-18T05:25:07;54.33;;;25.35;;
25125;SDS011;13106;50.808;5.670;2022-12-18T05:27:33;50.78;;;26.08;;
25125;SDS011;13106;50.808;5.670;2022-12-18T05:29:59;50.95;;;25.95;;
25125;SDS011;13106;50.808;5.670;2022-12-18T05:32:25;51.83;;;26.00;;
25125;SDS011;13106;50.808;5.670;2022-12-18T05:34:51;44.38;;;23.95;;
25125;SDS011;13106;50.808;5.670;2022-12-18T05:37:17;46.92;;;23.90;;
25125;SDS011;13106;50.808;5.670;2022-12-18T05:39:43;45.67;;;23.13;;
25125;SDS011;13106;50.808;5.670;2022-12-18T05:42:09;44.38;;;24.88;;
25125;SDS011;13106;50.808;5.670;2022-12-18T05:44:35;40.10;;;22.45;;
25125;SDS011;13106;50.808;5.670;2022-12-18T05:47:01;47.90;;;22.98;;
25125;SDS011;13106;50.808;5.670;2022-12-18T05:49:27;45.03;;;22.70;;
25125;SDS011;13106;50.808;5.670;2022-12-18T05:51:53;47.80;;;24.15;;
25125;SDS011;13106;50.808;5.670;2022-12-18T05:54:19;49.28;;;25.27;;
25125;SDS011;13106;50.808;5.670;2022-12-18T05:56:45;48.47;;;25.35;;
25125;SDS011;13106;50.808;5.670;2022-12-18T05:59:11;44.38;;;23.73;;
25125;SDS011;13106;50.808;5.670;2022-12-18T06:01:37;49.78;;;26.08;;
25125;SDS011;13106;50.808;5.670;2022-12-18T06:04:03;50.13;;;25.13;;
25125;SDS011;13106;50.808;5.670;2022-12-18T06:06:29;43.17;;;24.17;;
25125;SDS011;13106;50.808;5.670;2022-12-18T06:08:56;49.78;;;25.77;;
25125;SDS011;13106;50.808;5.670;2022-12-18T06:11:23;49.92;;;25.23;;
25125;SDS011;13106;50.808;5.670;2022-12-18T06:13:50;48.88;;;25.45;;
25125;SDS011;13106;50.808;5.670;2022-12-18T06:16:16;46.22;;;24.90;;
25125;SDS011;13106;50.808;5.670;2022-12-18T06:18:42;48.00;;;24.55;;
25125;SDS011;13106;50.808;5.670;2022-12-18T06:21:08;46.00;;;23.20;;
25125;SDS011;13106;50.808;5.670;2022-12-18T06:23:35;40.55;;;21.65;;
25125;SDS011;13106;50.808;5.670;2022-12-18T06:26:07;41.85;;;22.73;;
25125;SDS011;13106;50.808;5.670;2022-12-18T06:28:33;38.75;;;22.60;;
25125;SDS011;13106;50.808;5.670;2022-12-18T06:30:59;48.40;;;24.27;;
25125;SDS011;13106;50.808;5.670;2022-12-18T06:33:26;46.38;;;24.13;;
25125;SDS011;13106;50.808;5.670;2022-12-18T06:35:53;45.33;;;24.40;;
25125;SDS011;13106;50.808;5.670;2022-12-18T06:38:19;51.55;;;26.23;;
25125;SDS011;13106;50.808;5.670;2022-12-18T06:40:45;47.80;;;26.17;;
25125;SDS011;13106;50.808;5.670;2022-12-18T06:43:11;49.78;;;26.92;;
25125;SDS011;13106;50.808;5.670;2022-12-18T06:45:37;47.70;;;25.67;;
25125;SDS011;13106;50.808;5.670;2022-12-18T06:48:03;52.38;;;27.33;;
25125;SDS011;13106;50.808;5.670;2022-12-18T06:50:29;44.30;;;25.80;;
25125;SDS011;13106;50.808;5.670;2022-12-18T06:52:55;48.83;;;25.50;;
25125;SDS011;13106;50.808;5.670;2022-12-18T06:55:21;45.20;;;24.17;;
25125;SDS011;13106;50.808;5.670;2022-12-18T06:57:47;47.65;;;24.63;;
25125;SDS011;13106;50.808;5.670;2022-12-18T07:00:13;54.33;;;25.23;;
25125;SDS011;13106;50.808;5.670;2022-12-18T07:02:40;47.22;;;25.33;;
25125;SDS011;13106;50.808;5.670;2022-12-18T07:05:06;49.42;;;24.85;;
25125;SDS011;13106;50.808;5.670;2022-12-18T07:07:33;45.22;;;24.60;;
25125;SDS011;13106;50.808;5.670;2022-12-18T07:09:59;49.47;;;25.52;;
25125;SDS011;13106;50.808;5.670;2022-12-18T07:12:26;48.25;;;24.98;;
25125;SDS011;13106;50.808;5.670;2022-12-18T07:14:52;49.45;;;25.27;;
25125;SDS011;13106;50.808;5.670;2022-12-18T07:17:18;47.92;;;24.85;;
25125;SDS011;13106;50.808;5.670;2022-12-18T07:19:44;48.25;;;25.17;;
25125;SDS011;13106;50.808;5.670;2022-12-18T07:22:10;46.88;;;23.98;;
25125;SDS011;13106;50.808;5.670;2022-12-18T07:24:36;46.45;;;24.48;;
25125;SDS011;13106;50.808;5.670;2022-12-18T07:27:02;42.10;;;24.25;;
25125;SDS011;13106;50.808;5.670;2022-12-18T07:29:28;45.25;;;24.98;;
25125;SDS011;13106;50.808;5.670;2022-12-18T07:31:54;47.97;;;24.55;;
25125;SDS011;13106;50.808;5.670;2022-12-18T07:34:20;46.88;;;24.20;;
25125;SDS011;13106;50.808;5.670;2022-12-18T07:36:46;44.33;;;23.73;;
25125;SDS011;13106;50.808;5.670;2022-12-18T07:39:12;46.40;;;24.17;;
25125;SDS011;13106;50.808;5.670;2022-12-18T07:41:38;45.42;;;24.63;;
25125;SDS011;13106;50.808;5.670;2022-12-18T07:44:10;42.22;;;23.65;;
25125;SDS011;13106;50.808;5.670;2022-12-18T07:46:36;40.80;;;22.42;;
25125;SDS011;13106;50.808;5.670;2022-12-18T07:49:02;44.30;;;22.05;;
25125;SDS011;13106;50.808;5.670;2022-12-18T07:51:28;38.50;;;22.30;;
25125;SDS011;13106;50.808;5.670;2022-12-18T07:53:55;39.47;;;22.05;;
25125;SDS011;13106;50.808;5.670;2022-12-18T07:56:21;36.80;;;20.77;;
25125;SDS011;13106;50.808;5.670;2022-12-18T07:58:47;39.50;;;21.17;;
25125;SDS011;13106;50.808;5.670;2022-12-18T08:01:13;39.45;;;22.83;;
25125;SDS011;13106;50.808;5.670;2022-12-18T08:03:39;39.15;;;23.67;;
25125;SDS011;13106;50.808;5.670;2022-12-18T08:06:07;46.40;;;22.60;;
25125;SDS011;13106;50.808;5.670;2022-12-18T08:08:33;40.92;;;23.25;;
25125;SDS011;13106;50.808;5.670;2022-12-18T08:11:00;43.15;;;22.90;;
25125;SDS011;13106;50.808;5.670;2022-12-18T08:13:27;43.83;;;22.08;;
25125;SDS011;13106;50.808;5.670;2022-12-18T08:16:00;36.80;;;22.20;;
25125;SDS011;13106;50.808;5.670;2022-12-18T08:18:26;41.15;;;23.77;;
25125;SDS011;13106;50.808;5.670;2022-12-18T08:20:52;48.58;;;27.58;;
25125;SDS011;13106;50.808;5.670;2022-12-18T08:23:18;66.05;;;33.35;;
25125;SDS011;13106;50.808;5.670;2022-12-18T08:25:44;48.83;;;25.50;;
25125;SDS011;13106;50.808;5.670;2022-12-18T08:28:10;39.50;;;22.88;;
25125;SDS011;13106;50.808;5.670;2022-12-18T08:30:36;39.67;;;23.60;;
25125;SDS011;13106;50.808;5.670;2022-12-18T08:33:03;37.85;;;23.60;;
25125;SDS011;13106;50.808;5.670;2022-12-18T08:35:29;43.10;;;23.25;;
25125;SDS011;13106;50.808;5.670;2022-12-18T08:37:55;39.03;;;22.15;;
25125;SDS011;13106;50.808;5.670;2022-12-18T08:40:21;41.95;;;23.23;;
25125;SDS011;13106;50.808;5.670;2022-12-18T08:42:47;42.17;;;23.95;;
25125;SDS011;13106;50.808;5.670;2022-12-18T08:45:32;47.53;;;24.73;;
25125;SDS011;13106;50.808;5.670;2022-12-18T08:47:59;42.05;;;24.33;;
25125;SDS011;13106;50.808;5.670;2022-12-18T08:50:25;45.95;;;25.20;;
25125;SDS011;13106;50.808;5.670;2022-12-18T08:52:51;39.88;;;22.65;;
25125;SDS011;13106;50.808;5.670;2022-12-18T08:55:17;42.30;;;23.27;;
25125;SDS011;13106;50.808;5.670;2022-12-18T08:57:43;39.63;;;23.27;;
25125;SDS011;13106;50.808;5.670;2022-12-18T09:00:13;40.80;;;23.58;;
25125;SDS011;13106;50.808;5.670;2022-12-18T09:02:39;46.17;;;27.27;;
25125;SDS011;13106;50.808;5.670;2022-12-18T09:05:05;47.47;;;28.30;;
25125;SDS011;13106;50.808;5.670;2022-12-18T09:07:31;51.70;;;28.48;;
25125;SDS011;13106;50.808;5.670;2022-12-18T09:09:57;43.78;;;27.65;;
25125;SDS011;13106;50.808;5.670;2022-12-18T09:12:23;47.80;;;27.73;;
25125;SDS011;13106;50.808;5.670;2022-12-18T09:14:49;46.85;;;26.42;;
25125;SDS011;13106;50.808;5.670;2022-12-18T09:17:15;44.40;;;26.00;;
25125;SDS011;13106;50.808;5.670;2022-12-18T09:19:41;43.08;;;25.92;;
25125;SDS011;13106;50.808;5.670;2022-12-18T09:22:08;41.85;;;24.98;;
25125;SDS011;13106;50.808;5.670;2022-12-18T09:24:34;42.88;;;24.92;;
25125;SDS011;13106;50.808;5.670;2022-12-18T09:27:00;42.35;;;26.25;;
25125;SDS011;13106;50.808;5.670;2022-12-18T09:29:26;43.63;;;26.02;;
25125;SDS011;13106;50.808;5.670;2022-12-18T09:31:52;53.40;;;29.45;;
25125;SDS011;13106;50.808;5.670;2022-12-18T09:34:18;48.30;;;29.27;;
25125;SDS011;13106;50.808;5.670;2022-12-18T09:36:46;52.33;;;29.65;;
25125;SDS011;13106;50.808;5.670;2022-12-18T09:39:13;55.05;;;28.38;;
25125;SDS011;13106;50.808;5.670;2022-12-18T09:46:43;47.30;;;28.10;;
25125;SDS011;13106;50.808;5.670;2022-12-18T09:49:11;51.42;;;29.45;;
25125;SDS011;13106;50.808;5.670;2022-12-18T09:51:39;58.50;;;30.98;;
25125;SDS011;13106;50.808;5.670;2022-12-18T09:54:26;61.10;;;32.53;;
25125;SDS011;13106;50.808;5.670;2022-12-18T09:56:52;57.85;;;31.58;;
25125;SDS011;13106;50.808;5.670;2022-12-18T09:59:26;57.40;;;31.15;;
25125;SDS011;13106;50.808;5.670;2022-12-18T10:01:54;53.58;;;31.17;;
25125;SDS011;13106;50.808;5.670;2022-12-18T10:04:21;57.30;;;32.10;;
25125;SDS011;13106;50.808;5.670;2022-12-18T10:12:02;49.65;;;28.83;;
25125;SDS011;13106;50.808;5.670;2022-12-18T10:17:26;53.85;;;30.10;;
25125;SDS011;13106;50.808;5.670;2022-12-18T10:19:55;47.47;;;25.85;;
25125;SDS011;13106;50.808;5.670;2022-12-18T10:25:05;46.42;;;27.17;;
25125;SDS011;13106;50.808;5.670;2022-12-18T10:27:32;46.45;;;27.65;;
25125;SDS011;13106;50.808;5.670;2022-12-18T10:29:58;45.17;;;27.65;;
25125;SDS011;13106;50.808;5.670;2022-12-18T10:32:26;42.08;;;26.08;;
25125;SDS011;13106;50.808;5.670;2022-12-18T10:34:53;45.70;;;26.80;;
25125;SDS011;13106;50.808;5.670;2022-12-18T10:37:21;41.83;;;26.05;;
25125;SDS011;13106;50.808;5.670;2022-12-18T10:40:04;44.42;;;27.05;;
25125;SDS011;13106;50.808;5.670;2022-12-18T10:42:32;44.33;;;28.55;;
25125;SDS011;13106;50.808;5.670;2022-12-18T10:45:16;45.40;;;29.23;;
25125;SDS011;13106;50.808;5.670;2022-12-18T10:47:43;46.53;;;28.15;;
25125;SDS011;13106;50.808;5.670;2022-12-18T10:50:18;41.78;;;26.60;;
25125;SDS011;13106;50.808;5.670;2022-12-18T10:52:45;42.25;;;23.42;;
25125;SDS011;13106;50.808;5.670;2022-12-18T10:55:18;39.78;;;24.23;;
25125;SDS011;13106;50.808;5.670;2022-12-18T10:57:44;27.58;;;18.75;;
25125;SDS011;13106;50.808;5.670;2022-12-18T11:00:21;25.15;;;17.60;;
25125;SDS011;13106;50.808;5.670;2022-12-18T11:02:48;29.80;;;20.38;;
25125;SDS011;13106;50.808;5.670;2022-12-18T11:05:28;26.73;;;18.02;;
25125;SDS011;13106;50.808;5.670;2022-12-18T11:07:55;38.00;;;28.77;;
25125;SDS011;13106;50.808;5.670;2022-12-18T11:10:23;41.80;;;30.75;;
25125;SDS011;13106;50.808;5.670;2022-12-18T11:12:51;86.82;;;59.80;;
25125;SDS011;13106;50.808;5.670;2022-12-18T11:15:29;31.17;;;20.73;;
25125;SDS011;13106;50.808;5.670;2022-12-18T11:17:56;31.35;;;23.85;;
25125;SDS011;13106;50.808;5.670;2022-12-18T11:23:21;30.33;;;19.08;;
25125;SDS011;13106;50.808;5.670;2022-12-18T11:25:40;27.60;;;18.65;;
25125;SDS011;13106;50.808;5.670;2022-12-18T11:28:29;31.90;;;19.10;;
25125;SDS011;13106;50.808;5.670;2022-12-18T11:33:50;28.65;;;19.00;;
25125;SDS011;13106;50.808;5.670;2022-12-18T11:36:18;32.70;;;18.10;;
25125;SDS011;13106;50.808;5.670;2022-12-18T11:38:44;32.35;;;19.65;;
25125;SDS011;13106;50.808;5.670;2022-12-18T11:44:15;28.17;;;18.58;;
25125;SDS011;13106;50.808;5.670;2022-12-18T11:46:46;28.40;;;19.13;;
25125;SDS011;13106;50.808;5.670;2022-12-18T11:49:25;31.77;;;20.67;;
25125;SDS011;13106;50.808;5.670;2022-12-18T11:51:58;30.88;;;20.02;;
25125;SDS011;13106;50.808;5.670;2022-12-18T11:54:26;29.88;;;20.02;;
25125;SDS011;13106;50.808;5.670;2022-12-18T11:56:56;29.40;;;20.25;;
25125;SDS011;13106;50.808;5.670;2022-12-18T12:07:18;39.03;;;23.05;;
25125;SDS011;13106;50.808;5.670;2022-12-18T12:10:00;33.13;;;23.40;;
25125;SDS011;13106;50.808;5.670;2022-12-18T12:12:31;32.42;;;21.83;;
25125;SDS011;13106;50.808;5.670;2022-12-18T12:17:45;31.67;;;20.02;;
25125;SDS011;13106;50.808;5.670;2022-12-18T12:35:32;32.78;;;21.70;;
25125;SDS011;13106;50.808;5.670;2022-12-18T12:38:09;33.95;;;22.05;;
25125;SDS011;13106;50.808;5.670;2022-12-18T12:40:41;34.72;;;23.95;;
25125;SDS011;13106;50.808;5.670;2022-12-18T12:43:43;34.70;;;21.52;;
25125;SDS011;13106;50.808;5.670;2022-12-18T12:46:14;32.60;;;22.38;;
25125;SDS011;13106;50.808;5.670;2022-12-18T12:51:19;31.13;;;21.98;;
25125;SDS011;13106;50.808;5.670;2022-12-18T12:53:46;32.88;;;21.38;;
25125;SDS011;13106;50.808;5.670;2022-12-18T12:56:13;31.02;;;22.48;;
25125;SDS011;13106;50.808;5.670;2022-12-18T13:01:46;35.13;;;23.67;;
25125;SDS011;13106;50.808;5.670;2022-12-18T13:04:18;36.28;;;23.92;;
25125;SDS011;13106;50.808;5.670;2022-12-18T13:06:47;33.38;;;22.63;;
25125;SDS011;13106;50.808;5.670;2022-12-18T13:09:16;37.30;;;25.57;;
25125;SDS011;13106;50.808;5.670;2022-12-18T13:11:42;36.15;;;24.90;;
25125;SDS011;13106;50.808;5.670;2022-12-18T13:14:37;36.58;;;24.98;;
25125;SDS011;13106;50.808;5.670;2022-12-18T13:17:13;39.63;;;27.38;;
25125;SDS011;13106;50.808;5.670;2022-12-18T13:19:40;39.17;;;26.25;;
25125;SDS011;13106;50.808;5.670;2022-12-18T13:22:20;39.47;;;25.83;;
25125;SDS011;13106;50.808;5.670;2022-12-18T13:24:47;39.83;;;26.98;;
25125;SDS011;13106;50.808;5.670;2022-12-18T13:43:44;42.05;;;28.85;;
25125;SDS011;13106;50.808;5.670;2022-12-18T13:46:24;39.55;;;27.10;;
25125;SDS011;13106;50.808;5.670;2022-12-18T13:49:20;41.30;;;27.92;;
25125;SDS011;13106;50.808;5.670;2022-12-18T13:51:47;40.13;;;29.65;;
25125;SDS011;13106;50.808;5.670;2022-12-18T13:56:54;43.45;;;28.60;;
25125;SDS011;13106;50.808;5.670;2022-12-18T13:59:24;40.35;;;27.75;;
25125;SDS011;13106;50.808;5.670;2022-12-18T14:01:57;35.35;;;26.75;;
25125;SDS011;13106;50.808;5.670;2022-12-18T14:04:24;50.92;;;45.47;;
25125;SDS011;13106;50.808;5.670;2022-12-18T14:06:52;41.20;;;35.33;;
25125;SDS011;13106;50.808;5.670;2022-12-18T14:09:20;39.97;;;30.30;;
25125;SDS011;13106;50.808;5.670;2022-12-18T14:11:48;36.80;;;24.65;;
25125;SDS011;13106;50.808;5.670;2022-12-18T14:14:17;38.40;;;25.77;;
25125;SDS011;13106;50.808;5.670;2022-12-18T14:16:43;35.35;;;23.98;;
25125;SDS011;13106;50.808;5.670;2022-12-18T14:19:16;44.45;;;26.25;;
25125;SDS011;13106;50.808;5.670;2022-12-18T14:21:47;37.78;;;24.48;;
25125;SDS011;13106;50.808;5.670;2022-12-18T14:24:20;44.50;;;29.95;;
25125;SDS011;13106;50.808;5.670;2022-12-18T14:26:47;34.58;;;22.15;;
25125;SDS011;13106;50.808;5.670;2022-12-18T14:29:21;38.35;;;22.98;;
25125;SDS011;13106;50.808;5.670;2022-12-18T14:34:33;37.10;;;22.58;;
25125;SDS011;13106;50.808;5.670;2022-12-18T14:36:59;39.70;;;23.88;;
25125;SDS011;13106;50.808;5.670;2022-12-18T14:39:25;40.63;;;24.75;;
25125;SDS011;13106;50.808;5.670;2022-12-18T14:41:51;38.25;;;23.75;;
25125;SDS011;13106;50.808;5.670;2022-12-18T14:44:18;42.67;;;26.25;;
25125;SDS011;13106;50.808;5.670;2022-12-18T14:46:46;39.38;;;24.48;;
25125;SDS011;13106;50.808;5.670;2022-12-18T14:51:41;40.67;;;24.85;;
25125;SDS011;13106;50.808;5.670;2022-12-18T14:54:16;40.47;;;24.50;;
25125;SDS011;13106;50.808;5.670;2022-12-18T14:56:44;47.08;;;27.15;;
25125;SDS011;13106;50.808;5.670;2022-12-18T14:59:20;44.80;;;27.90;;
25125;SDS011;13106;50.808;5.670;2022-12-18T15:04:58;51.53;;;30.33;;
25125;SDS011;13106;50.808;5.670;2022-12-18T15:07:22;52.20;;;30.70;;
25125;SDS011;13106;50.808;5.670;2022-12-18T15:14:59;57.15;;;33.97;;
25125;SDS011;13106;50.808;5.670;2022-12-18T15:17:25;63.67;;;34.45;;
25125;SDS011;13106;50.808;5.670;2022-12-18T15:19:53;59.50;;;34.85;;
25125;SDS011;13106;50.808;5.670;2022-12-18T15:22:28;49.28;;;28.77;;
25125;SDS011;13106;50.808;5.670;2022-12-18T15:24:54;53.75;;;31.63;;
25125;SDS011;13106;50.808;5.670;2022-12-18T15:27:31;56.97;;;34.95;;
25125;SDS011;13106;50.808;5.670;2022-12-18T15:32:38;75.90;;;55.92;;
25125;SDS011;13106;50.808;5.670;2022-12-18T15:37:35;53.92;;;36.53;;
25125;SDS011;13106;50.808;5.670;2022-12-18T15:40:01;69.50;;;42.20;;
25125;SDS011;13106;50.808;5.670;2022-12-18T15:42:28;74.60;;;62.33;;
25125;SDS011;13106;50.808;5.670;2022-12-18T15:45:13;55.75;;;37.10;;
25125;SDS011;13106;50.808;5.670;2022-12-18T15:47:39;61.45;;;39.35;;
25125;SDS011;13106;50.808;5.670;2022-12-18T15:50:07;62.90;;;42.08;;
25125;SDS011;13106;50.808;5.670;2022-12-18T15:52:35;57.42;;;40.70;;
25125;SDS011;13106;50.808;5.670;2022-12-18T15:55:02;64.10;;;41.10;;
25125;SDS011;13106;50.808;5.670;2022-12-18T15:57:47;56.33;;;40.92;;
25125;SDS011;13106;50.808;5.670;2022-12-18T16:00:13;62.65;;;43.28;;
25125;SDS011;13106;50.808;5.670;2022-12-18T16:02:39;65.50;;;43.85;;
25125;SDS011;13106;50.808;5.670;2022-12-18T16:05:09;60.15;;;41.80;;
25125;SDS011;13106;50.808;5.670;2022-12-18T16:07:39;57.30;;;38.88;;
25125;SDS011;13106;50.808;5.670;2022-12-18T16:10:05;55.53;;;38.40;;
25125;SDS011;13106;50.808;5.670;2022-12-18T16:12:31;67.97;;;43.08;;
25125;SDS011;13106;50.808;5.670;2022-12-18T16:14:57;58.65;;;38.55;;
25125;SDS011;13106;50.808;5.670;2022-12-18T16:17:23;66.63;;;41.60;;
25125;SDS011;13106;50.808;5.670;2022-12-18T16:19:49;68.50;;;43.45;;
25125;SDS011;13106;50.808;5.670;2022-12-18T16:22:20;68.25;;;51.17;;